Latest Weather Observations for Cape Sorell

IDT60801

Issued at 12:11 pm EST Saturday 23 June 2018 (issued every 10 minutes, with the page automatically refreshed every 10 minutes)

About weather observations | Map of weather stations | Latest weather observations for TAS | Other Formats
Station Details ID: 097000 Name: CAPE SORELL Lat: -42.20 Lon: 145.17 Height: 19.3 m
Data from the previous 72 hours. | See also: Recent months at Cape Sorell
Date/Time
EST
Temp
°C
App
Temp
°C
Dew
Point
°C
Rel
Hum
%
Delta-T
°C
Wind Press
QNH
hPa
Press
MSL
hPa
Rain since
9am
mm
Dir  Spd
km/h
Gust
km/h
Spd
kts
Gust
kts
23/12:00pm 11.0 3.2 4.7 65 2.8 WSW 35 44 19 24 1022.0 1022.0 0.0
23/11:30am 10.3 3.0 5.5 72 2.2 WSW 33 43 18 23 1022.0 1022.0 0.0
23/11:18am 9.6 2.9 5.6 76 1.8 WSW 30 50 16 27 1022.3 1022.3 0.0
23/11:00am 10.6 2.7 6.0 73 2.1 SW 37 48 20 26 1022.3 1022.3 0.0
23/10:30am 10.3 0.9 5.3 71 2.3 WSW 44 54 24 29 1021.9 1021.9 0.0
23/10:00am 9.8 2.6 5.2 73 2.1 WSW 32 43 17 23 1021.9 1021.9 0.0
23/09:30am 9.7 0.3 5.3 74 2.0 WSW 44 52 24 28 1021.6 1021.6 0.0
23/09:00am 9.6 2.6 5.8 77 1.7 WSW 32 39 17 21 1021.3 1021.3 7.8
23/08:30am 9.8 2.1 5.4 74 2.0 WSW 35 46 19 25 1020.9 1020.9 7.8
23/08:00am 9.6 2.0 5.6 76 1.8 WSW 35 44 19 24 1020.8 1020.8 7.8
23/07:30am 9.5 2.5 5.9 78 1.7 SW 32 44 17 24 1020.5 1020.5 7.8
23/07:00am 10.2 1.5 6.0 75 1.9 SW 41 50 22 27 1020.0 1020.0 7.8
23/06:30am 10.3 3.1 5.1 70 2.4 WSW 32 39 17 21 1019.8 1019.8 7.8
23/06:00am 10.0 2.1 4.6 69 2.4 WSW 35 41 19 22 1019.6 1019.6 7.8
23/05:30am 9.9 0.7 5.3 73 2.1 SW 43 50 23 27 1019.1 1019.1 7.8
23/05:00am 10.0 1.0 7.1 82 1.4 SW 44 54 24 29 1018.8 1018.8 7.8
23/04:30am 10.0 0.8 8.1 88 0.9 SW 46 54 25 29 1018.6 1018.6 7.6
23/04:00am 10.1 0.6 8.4 89 0.8 SW 48 61 26 33 1018.5 1018.5 7.6
23/03:54am 10.4 2.7 8.7 89 0.8 WSW 39 57 21 31 1018.3 1018.3 7.6
23/03:30am 10.6 3.0 8.9 89 0.8 SW 39 54 21 29 1018.4 1018.4 7.4
23/03:24am 10.5 3.5 8.6 88 0.9 SW 35 54 19 29 1018.1 1018.1 7.4
23/03:00am 10.6 2.5 8.5 87 1.0 SW 41 50 22 27 1018.4 1018.4 7.4
23/02:30am 11.0 3.4 9.1 88 0.9 WSW 39 46 21 25 1018.2 1018.2 7.4
23/02:00am 11.1 3.2 9.4 89 0.9 WSW 41 48 22 26 1017.8 1017.8 7.4
23/01:30am 11.2 3.5 10.0 92 0.6 WSW 41 48 22 26 1017.5 1017.5 7.4
23/01:00am 10.9 3.8 9.7 92 0.6 WSW 37 44 20 24 1017.5 1017.5 7.4
23/12:40am 11.7 6.2 10.4 92 0.7 W 30 48 16 26 1017.5 1017.5 6.4
23/12:30am 11.4 6.2 10.1 92 0.7 W 28 37 15 20 1017.6 1017.6 6.4
23/12:00am 11.3 5.2 9.7 90 0.8 WSW 32 52 17 28 1018.1 1018.1 5.8
 
Date/Time
EST
Temp
°C
App
Temp
°C
Dew
Point
°C
Rel
Hum
%
Delta-T
°C
Wind Press
QNH
hPa
Press
MSL
hPa
Rain since
9am
mm
Dir  Spd
km/h
Gust
km/h
Spd
kts
Gust
kts
22/11:51pm 11.6 5.5 9.9 89 0.9 WSW 32 50 17 27 1017.9 1017.9 3.8
22/11:46pm 11.7 5.6 9.8 88 1.0 W 32 43 17 23 1018.1 1018.1 3.8
22/11:30pm 11.9 4.9 10.1 89 0.9 WNW 37 52 20 28 1018.2 1018.2 3.8
22/11:00pm 12.2 5.3 10.3 88 1.0 WNW 37 52 20 28 1018.1 1018.1 3.6
22/10:30pm 12.4 5.2 10.6 89 0.9 WNW 39 54 21 29 1018.2 1018.2 3.6
22/10:00pm 12.3 5.5 10.5 89 0.9 WNW 37 50 20 27 1018.6 1018.6 3.4
22/09:30pm 12.4 5.2 10.5 88 1.0 WNW 39 48 21 26 1018.7 1018.7 3.4
22/09:00pm 12.5 5.6 10.4 87 1.1 NW 37 48 20 26 1018.8 1018.8 3.0
22/08:30pm 12.3 5.0 10.2 87 1.1 WNW 39 52 21 28 1019.0 1019.0 3.0
22/08:00pm 12.6 4.6 10.3 86 1.2 WNW 43 57 23 31 1019.2 1019.2 2.8
22/07:30pm 12.6 4.7 10.7 88 1.0 WNW 43 54 23 29 1019.1 1019.1 2.8
22/07:00pm 12.4 3.5 10.6 89 0.9 WNW 48 70 26 38 1018.9 1018.9 2.8
22/06:30pm 12.5 4.6 10.7 89 0.9 NW 43 63 23 34 1018.9 1018.9 2.8
22/06:17pm 12.8 7.1 11.0 89 0.9 NW 32 54 17 29 1018.9 1018.9 2.4
22/06:00pm 12.9 7.0 11.1 89 0.9 NW 33 44 18 24 1019.1 1019.1 2.0
22/05:30pm 12.7 6.3 10.8 88 1.0 NW 35 43 19 23 1019.3 1019.3 2.0
22/05:00pm 12.7 8.3 10.4 86 1.2 NW 24 37 13 20 1019.5 1019.5 1.8
22/04:30pm 12.4 6.8 10.1 86 1.2 NW 30 43 16 23 1019.8 1019.8 1.8
22/04:00pm 12.0 6.0 10.1 88 1.0 NW 32 46 17 25 1019.9 1019.9 1.8
22/03:30pm 12.9 8.6 10.8 87 1.1 NW 24 35 13 19 1020.2 1020.2 1.4
22/03:00pm 12.7 7.5 10.4 86 1.2 NW 28 44 15 24 1020.1 1020.1 1.4
22/02:30pm 12.9 7.9 11.0 88 1.0 NW 28 39 15 21 1020.3 1020.3 1.4
22/02:00pm 13.0 9.2 11.2 89 0.9 NW 22 35 12 19 1020.7 1020.7 1.4
22/01:30pm 12.7 7.7 11.1 90 0.8 NW 28 37 15 20 1020.8 1020.8 1.4
22/01:00pm 12.2 6.3 10.4 89 0.9 WNW 32 43 17 23 1021.2 1021.2 1.4
22/12:30pm 13.0 8.8 11.2 89 0.9 NW 24 33 13 18 1021.4 1021.4 1.0
22/12:00pm 12.8 7.9 11.2 90 0.8 WNW 28 35 15 19 1021.9 1021.9 1.0
22/11:30am 12.2 7.1 10.6 90 0.8 NW 28 43 15 23 1022.3 1022.3 1.0
22/11:00am 12.4 8.2 11.1 92 0.7 NW 24 37 13 20 1022.7 1022.7 1.0
22/10:30am 11.6 6.0 10.3 92 0.7 N 30 37 16 20 1022.7 1022.7 1.0
22/10:00am 11.2 4.5 9.8 91 0.7 N 35 43 19 23 1022.8 1022.8 1.0
22/09:30am 11.1 4.0 9.4 89 0.9 N 37 43 20 23 1022.8 1022.8 0.6
22/09:00am 11.4 4.3 9.5 88 1.0 N 37 48 20 26 1022.6 1022.6 0.8
22/08:30am 11.4 5.0 9.5 88 1.0 N 33 41 18 22 1022.7 1022.7 0.8
22/08:00am 11.2 4.4 9.3 88 0.9 N 35 43 19 23 1022.6 1022.6 0.6
22/07:30am 11.2 4.0 9.1 87 1.0 N 37 46 20 25 1022.7 1022.7 0.6
22/07:00am 11.4 4.9 9.0 85 1.2 N 33 43 18 23 1022.8 1022.8 0.4
22/06:30am 11.9 5.3 8.7 81 1.6 N 33 39 18 21 1022.7 1022.7 0.0
22/06:00am 11.8 5.2 8.6 81 1.6 N 33 43 18 23 1022.7 1022.7 0.0
22/05:30am 11.8 5.2 8.6 81 1.6 N 33 43 18 23 1022.8 1022.8 0.0
22/05:00am 11.7 5.7 8.7 82 1.5 N 30 41 16 22 1022.9 1022.9 0.0
22/04:30am 11.5 5.6 9.1 85 1.2 N 30 37 16 20 1023.0 1023.0 0.0
22/04:00am 10.7 5.4 8.5 86 1.1 NNE 26 32 14 17 1023.4 1023.4 0.0
22/03:30am 10.2 4.4 7.8 85 1.2 NNE 28 33 15 18 1023.6 1023.6 0.0
22/03:00am 10.4 5.0 8.0 85 1.2 NNE 26 33 14 18 1023.9 1023.9 0.0
22/02:30am 10.3 4.9 7.9 85 1.2 NNE 26 30 14 16 1024.1 1024.1 0.0
22/02:00am 10.1 3.4 7.5 84 1.2 NNE 32 35 17 19 1023.9 1023.9 0.0
22/01:30am 11.0 5.7 8.4 84 1.3 N 26 32 14 17 1024.1 1024.1 0.0
22/01:00am 10.8 5.4 7.9 82 1.4 N 26 32 14 17 1024.3 1024.3 0.0
22/12:30am 10.6 5.0 7.1 79 1.7 NNE 26 30 14 16 1024.5 1024.5 0.0
22/12:00am 11.1 6.2 6.8 75 2.0 NNE 22 28 12 15 1024.7 1024.7 0.0
 
Date/Time
EST
Temp
°C
App
Temp
°C
Dew
Point
°C
Rel
Hum
%
Delta-T
°C
Wind Press
QNH
hPa
Press
MSL
hPa
Rain since
9am
mm
Dir  Spd
km/h
Gust
km/h
Spd
kts
Gust
kts
21/11:30pm 11.2 6.7 6.3 72 2.3 N 19 24 10 13 1024.9 1024.9 0.0
21/11:00pm 11.9 7.3 5.8 66 2.8 NNW 19 24 10 13 1024.9 1024.9 0.0
21/10:30pm 11.8 8.1 6.1 68 2.7 NNW 15 20 8 11 1025.0 1025.0 0.0
21/10:00pm 11.8 7.7 6.1 68 2.7 NW 17 24 9 13 1025.2 1025.2 0.0
21/09:30pm 11.5 6.7 5.8 68 2.7 NNW 20 30 11 16 1025.4 1025.4 0.0
21/09:00pm 11.5 7.2 5.2 65 2.9 NW 17 24 9 13 1025.4 1025.4 0.0
21/08:30pm 11.3 6.9 5.0 65 2.9 NW 17 20 9 11 1025.5 1025.5 0.0
21/08:00pm 11.0 7.1 5.3 68 2.6 NW 15 22 8 12 1025.5 1025.5 0.0
21/07:30pm 11.4 7.7 6.1 70 2.5 NNW 15 19 8 10 1025.4 1025.4 0.0
21/07:00pm 11.0 7.6 5.7 70 2.4 NNW 13 17 7 9 1025.3 1025.3 0.0
21/06:30pm 10.9 7.3 5.2 68 2.6 NNW 13 17 7 9 1025.3 1025.3 0.0
21/06:00pm 10.6 6.9 4.5 66 2.7 NW 13 19 7 10 1025.2 1025.2 0.0
21/05:30pm 10.8 7.5 4.5 65 2.8 WNW 11 17 6 9 1025.2 1025.2 0.0
21/05:00pm 10.3 6.9 4.0 65 2.8 W 11 15 6 8 1025.1 1025.1 0.0
21/04:30pm 10.9 8.0 4.6 65 2.8 W 9 13 5 7 1025.2 1025.2 0.0
21/04:00pm 11.7 8.2 5.6 66 2.8 WNW 13 20 7 11 1025.1 1025.1 0.0
21/03:30pm 11.6 8.7 4.8 63 3.1 W 9 15 5 8 1025.0 1025.0 0.0
21/03:00pm 11.9 8.2 4.2 59 3.4 W 13 19 7 10 1024.8 1024.8 0.0
21/02:30pm 12.3 8.3 4.8 60 3.4 W 15 20 8 11 1024.8 1024.8 0.0
21/02:00pm 11.9 9.1 5.3 64 3.0 W 9 17 5 9 1025.0 1025.0 0.0
21/01:30pm 12.5 8.6 5.2 61 3.4 WNW 15 20 8 11 1025.0 1025.0 0.0
21/01:00pm 12.1 8.9 5.0 62 3.2 W 11 17 6 9 1025.0 1025.0 0.0
21/12:30pm 12.8 9.5 6.4 65 3.0 SW 13 19 7 10 1025.2 1025.2 0.0
21/12:00pm 12.7 9.2 5.4 61 3.4 WSW 13 19 7 10 1025.4 1025.4 0.0
21/11:30am 12.3 8.5 5.7 64 3.1 W 15 19 8 10 1025.7 1025.7 0.0
21/11:00am 11.7 7.0 5.3 65 2.9 W 19 24 10 13 1025.9 1025.9 0.0
21/10:30am 11.9 8.9 5.8 66 2.8 W 11 19 6 10 1026.0 1026.0 0.0
21/10:00am 11.5 7.2 5.4 66 2.8 WSW 17 22 9 12 1026.0 1026.0 0.0
21/09:30am 10.9 6.6 5.2 68 2.6 WSW 17 22 9 12 1025.9 1025.9 0.0
21/09:00am 10.7 7.3 5.9 72 2.2 WSW 13 17 7 9 1025.8 1025.8 2.2
21/08:30am 10.0 7.3 5.4 73 2.1 WSW 9 13 5 7 1025.6 1025.6 2.2
21/08:00am 10.1 4.9 5.7 74 2.0 WSW 22 30 12 16 1025.4 1025.4 2.2
21/07:30am 10.3 6.5 5.7 73 2.1 WSW 15 20 8 11 1025.2 1025.2 2.2
21/07:00am 10.3 6.1 5.9 74 2.0 WSW 17 22 9 12 1024.9 1024.9 2.2
21/06:30am 10.4 5.8 6.4 76 1.9 WSW 20 24 11 13 1024.6 1024.6 2.2
21/06:00am 10.4 5.5 6.9 79 1.6 WSW 22 28 12 15 1024.4 1024.4 2.2
21/05:30am 10.6 5.8 7.5 81 1.5 WSW 22 28 12 15 1024.2 1024.2 2.2
21/05:00am 10.6 5.5 7.7 82 1.4 WSW 24 28 13 15 1024.0 1024.0 2.2
21/04:30am 10.6 7.9 7.5 81 1.5 W 11 17 6 9 1024.0 1024.0 2.2
21/04:00am 10.5 6.4 7.7 83 1.3 WSW 19 22 10 12 1023.9 1023.9 2.2
21/03:30am 10.2 6.5 8.0 86 1.1 WSW 17 24 9 13 1023.9 1023.9 2.2
21/03:00am 10.7 7.2 8.6 87 1.0 WSW 17 22 9 12 1023.9 1023.9 2.2
21/02:30am 10.6 6.6 8.9 89 0.8 WSW 20 28 11 15 1023.8 1023.8 2.2
21/02:00am 10.6 7.2 9.0 90 0.8 NNW 17 26 9 14 1023.7 1023.7 2.2
21/01:30am 10.0 3.5 8.3 89 0.8 N 32 43 17 23 1023.5 1023.5 2.0
21/01:00am 9.7 2.9 7.5 86 1.0 N 33 41 18 22 1023.7 1023.7 1.6
21/12:30am 9.9 3.2 7.2 83 1.3 N 32 43 17 23 1023.5 1023.5 1.4
21/12:00am 10.3 3.4 7.2 81 1.5 N 33 46 18 25 1023.7 1023.7 1.0
 
Date/Time
EST
Temp
°C
App
Temp
°C
Dew
Point
°C
Rel
Hum
%
Delta-T
°C
Wind Press
QNH
hPa
Press
MSL
hPa
Rain since
9am
mm
Dir  Spd
km/h
Gust
km/h
Spd
kts
Gust
kts
20/11:30pm 10.4 4.0 6.9 79 1.7 N 30 37 16 20 1023.6 1023.6 0.8
20/11:00pm 10.6 3.1 6.4 75 2.0 N 35 43 19 23 1023.6 1023.6 0.4
20/10:30pm 11.6 3.7 6.3 70 2.5 NNE 37 46 20 25 1022.9 1022.9 0.0
20/10:00pm 11.7 2.7 6.2 69 2.6 NNE 43 56 23 30 1022.9 1022.9 0.0
20/09:30pm 11.8 2.6 6.3 69 2.6 NNE 44 52 24 28 1023.2 1023.2 0.0
20/09:00pm 11.7 3.5 6.4 70 2.5 NNE 39 46 21 25 1023.3 1023.3 0.0
20/08:30pm 11.6 2.9 6.1 69 2.6 NNE 41 48 22 26 1023.1 1023.1 0.0
20/08:00pm 11.8 3.1 6.1 68 2.7 NNE 41 48 22 26 1023.0 1023.0 0.0
20/07:30pm 11.8 3.9 6.3 69 2.6 NNE 37 44 20 24 1023.2 1023.2 0.0
20/07:00pm 12.2 3.0 5.6 64 3.1 N 43 50 23 27 1023.1 1023.1 0.0
20/06:30pm 12.3 3.0 5.9 65 3.0 N 44 56 24 30 1023.3 1023.3 0.0
20/06:00pm 12.3 3.2 5.7 64 3.1 N 43 56 23 30 1023.4 1023.4 0.0
20/05:30pm 12.3 3.6 5.9 65 3.0 N 41 52 22 28 1023.4 1023.4 0.0
20/05:00pm 12.4 3.1 6.0 65 3.0 N 44 54 24 29 1023.0 1023.0 0.0
20/04:30pm 12.6 2.9 5.8 63 3.2 N 46 61 25 33 1023.0 1023.0 0.0
20/04:00pm 12.8 3.8 6.2 64 3.1 NNW 43 54 23 29 1022.8 1022.8 0.0
20/03:30pm 12.8 5.4 6.8 67 2.9 NNW 35 50 19 27 1023.0 1023.0 0.0
20/03:00pm 13.4 5.7 7.0 65 3.1 NNW 37 46 20 25 1022.8 1022.8 0.0
20/02:30pm 13.4 4.4 6.3 62 3.4 N 43 52 23 28 1022.4 1022.4 0.0
20/02:00pm 13.3 4.7 6.4 63 3.3 N 41 50 22 27 1022.4 1022.4 0.0
20/01:30pm 13.3 4.3 6.4 63 3.3 N 43 54 23 29 1022.7 1022.7 0.0
20/01:00pm 13.3 5.8 8.0 70 2.6 N 37 46 20 25 1023.0 1023.0 0.0
20/12:30pm 13.0 7.8 8.7 75 2.2 N 26 32 14 17 1023.5 1023.5 0.0

Other Formats:

Comma delimited format used in spreadsheet applications
http://www.bom.gov.au/fwo/IDT60801/IDT60801.94974.axf

JavaScript Object Notation format (JSON) in row-major order
http://www.bom.gov.au/fwo/IDT60801/IDT60801.94974.json